sensor_id;sensor_type;location;lat;lon;timestamp;P1;durP1;ratioP1;P2;durP2;ratioP2
10471;SDS011;5283;48.876;8.962;2023-09-19T00:00:43;3.30;;;1.63;;
10471;SDS011;5283;48.876;8.962;2023-09-19T00:03:13;4.23;;;1.70;;
10471;SDS011;5283;48.876;8.962;2023-09-19T00:05:39;2.73;;;1.43;;
10471;SDS011;5283;48.876;8.962;2023-09-19T00:08:10;2.17;;;1.60;;
10471;SDS011;5283;48.876;8.962;2023-09-19T00:10:39;1.70;;;1.60;;
10471;SDS011;5283;48.876;8.962;2023-09-19T00:13:08;3.53;;;1.43;;
10471;SDS011;5283;48.876;8.962;2023-09-19T01:30:32;1.57;;;1.47;;
10471;SDS011;5283;48.876;8.962;2023-09-19T01:33:02;1.37;;;1.23;;
10471;SDS011;5283;48.876;8.962;2023-09-19T01:35:31;1.90;;;1.60;;
10471;SDS011;5283;48.876;8.962;2023-09-19T01:37:59;1.47;;;1.37;;
10471;SDS011;5283;48.876;8.962;2023-09-19T01:40:25;4.27;;;1.40;;
10471;SDS011;5283;48.876;8.962;2023-09-19T01:43:03;1.93;;;1.80;;
10471;SDS011;5283;48.876;8.962;2023-09-19T01:49:01;1.70;;;1.60;;
10471;SDS011;5283;48.876;8.962;2023-09-19T01:51:34;3.03;;;1.50;;
10471;SDS011;5283;48.876;8.962;2023-09-19T01:54:10;2.17;;;1.87;;
10471;SDS011;5283;48.876;8.962;2023-09-19T01:59:25;1.97;;;1.70;;
10471;SDS011;5283;48.876;8.962;2023-09-19T02:02:01;2.63;;;1.60;;
10471;SDS011;5283;48.876;8.962;2023-09-19T02:04:29;3.13;;;2.00;;
10471;SDS011;5283;48.876;8.962;2023-09-19T02:06:56;1.90;;;1.67;;
10471;SDS011;5283;48.876;8.962;2023-09-19T02:09:24;2.03;;;1.83;;
10471;SDS011;5283;48.876;8.962;2023-09-19T02:11:52;2.53;;;1.80;;
10471;SDS011;5283;48.876;8.962;2023-09-19T02:14:18;2.30;;;1.50;;
10471;SDS011;5283;48.876;8.962;2023-09-19T02:16:46;2.87;;;1.90;;
10471;SDS011;5283;48.876;8.962;2023-09-19T02:19:12;2.17;;;1.93;;
10471;SDS011;5283;48.876;8.962;2023-09-19T02:21:39;5.13;;;2.37;;
10471;SDS011;5283;48.876;8.962;2023-09-19T02:24:06;4.27;;;2.30;;
10471;SDS011;5283;48.876;8.962;2023-09-19T02:26:34;2.20;;;1.90;;
10471;SDS011;5283;48.876;8.962;2023-09-19T02:29:02;4.30;;;2.10;;
10471;SDS011;5283;48.876;8.962;2023-09-19T02:31:30;6.30;;;2.13;;
10471;SDS011;5283;48.876;8.962;2023-09-19T02:33:57;3.80;;;2.00;;
10471;SDS011;5283;48.876;8.962;2023-09-19T02:36:26;3.10;;;2.20;;
10471;SDS011;5283;48.876;8.962;2023-09-19T02:38:52;2.93;;;2.57;;
10471;SDS011;5283;48.876;8.962;2023-09-19T02:41:19;3.93;;;2.70;;
10471;SDS011;5283;48.876;8.962;2023-09-19T02:43:46;3.93;;;2.53;;
10471;SDS011;5283;48.876;8.962;2023-09-19T02:46:13;4.50;;;2.90;;
10471;SDS011;5283;48.876;8.962;2023-09-19T02:48:40;4.37;;;2.63;;
10471;SDS011;5283;48.876;8.962;2023-09-19T02:51:08;5.03;;;2.40;;
10471;SDS011;5283;48.876;8.962;2023-09-19T02:53:34;3.60;;;2.50;;
10471;SDS011;5283;48.876;8.962;2023-09-19T02:56:02;3.73;;;2.60;;
10471;SDS011;5283;48.876;8.962;2023-09-19T02:58:30;4.43;;;2.57;;
10471;SDS011;5283;48.876;8.962;2023-09-19T03:01:07;4.00;;;2.50;;
10471;SDS011;5283;48.876;8.962;2023-09-19T03:03:35;6.33;;;2.73;;
10471;SDS011;5283;48.876;8.962;2023-09-19T03:06:03;5.83;;;2.40;;
10471;SDS011;5283;48.876;8.962;2023-09-19T03:08:31;2.87;;;2.67;;
10471;SDS011;5283;48.876;8.962;2023-09-19T03:11:07;2.57;;;2.37;;
10471;SDS011;5283;48.876;8.962;2023-09-19T03:13:37;4.83;;;2.60;;
10471;SDS011;5283;48.876;8.962;2023-09-19T03:16:04;5.67;;;2.77;;
10471;SDS011;5283;48.876;8.962;2023-09-19T03:18:33;2.73;;;2.53;;
10471;SDS011;5283;48.876;8.962;2023-09-19T03:21:00;5.20;;;2.80;;
10471;SDS011;5283;48.876;8.962;2023-09-19T03:23:27;3.57;;;2.63;;
10471;SDS011;5283;48.876;8.962;2023-09-19T03:25:55;4.27;;;2.63;;
10471;SDS011;5283;48.876;8.962;2023-09-19T03:28:22;2.87;;;2.53;;
10471;SDS011;5283;48.876;8.962;2023-09-19T03:48:41;3.27;;;2.30;;
10471;SDS011;5283;48.876;8.962;2023-09-19T03:51:08;4.43;;;2.60;;
10471;SDS011;5283;48.876;8.962;2023-09-19T03:53:35;2.90;;;2.50;;
10471;SDS011;5283;48.876;8.962;2023-09-19T03:56:03;3.50;;;2.53;;
10471;SDS011;5283;48.876;8.962;2023-09-19T03:58:30;6.27;;;2.40;;
10471;SDS011;5283;48.876;8.962;2023-09-19T04:00:57;3.70;;;2.57;;
10471;SDS011;5283;48.876;8.962;2023-09-19T04:03:24;4.73;;;2.60;;
10471;SDS011;5283;48.876;8.962;2023-09-19T04:06:01;3.63;;;2.67;;
10471;SDS011;5283;48.876;8.962;2023-09-19T04:08:28;3.10;;;2.50;;
10471;SDS011;5283;48.876;8.962;2023-09-19T04:10:55;2.90;;;2.60;;
10471;SDS011;5283;48.876;8.962;2023-09-19T04:13:23;3.17;;;2.83;;
10471;SDS011;5283;48.876;8.962;2023-09-19T04:15:49;5.53;;;3.07;;
10471;SDS011;5283;48.876;8.962;2023-09-19T04:18:16;3.60;;;2.73;;
10471;SDS011;5283;48.876;8.962;2023-09-19T04:20:49;4.17;;;2.37;;
10471;SDS011;5283;48.876;8.962;2023-09-19T04:23:16;4.23;;;2.80;;
10471;SDS011;5283;48.876;8.962;2023-09-19T04:25:43;4.80;;;2.90;;
10471;SDS011;5283;48.876;8.962;2023-09-19T04:28:10;5.57;;;2.70;;
10471;SDS011;5283;48.876;8.962;2023-09-19T04:30:37;3.93;;;2.80;;
10471;SDS011;5283;48.876;8.962;2023-09-19T04:33:06;4.43;;;2.80;;
10471;SDS011;5283;48.876;8.962;2023-09-19T04:35:34;4.67;;;2.80;;
10471;SDS011;5283;48.876;8.962;2023-09-19T04:38:01;2.97;;;2.77;;
10471;SDS011;5283;48.876;8.962;2023-09-19T04:40:29;3.97;;;2.80;;
10471;SDS011;5283;48.876;8.962;2023-09-19T04:42:56;3.80;;;2.93;;
10471;SDS011;5283;48.876;8.962;2023-09-19T04:45:23;4.50;;;2.87;;
10471;SDS011;5283;48.876;8.962;2023-09-19T04:47:50;4.23;;;3.03;;
10471;SDS011;5283;48.876;8.962;2023-09-19T04:50:17;3.93;;;2.80;;
10471;SDS011;5283;48.876;8.962;2023-09-19T04:52:44;4.10;;;3.20;;
10471;SDS011;5283;48.876;8.962;2023-09-19T04:55:12;4.37;;;3.17;;
10471;SDS011;5283;48.876;8.962;2023-09-19T04:57:56;6.50;;;3.37;;
10471;SDS011;5283;48.876;8.962;2023-09-19T05:00:23;4.67;;;3.40;;
10471;SDS011;5283;48.876;8.962;2023-09-19T05:02:50;16.20;;;3.57;;
10471;SDS011;5283;48.876;8.962;2023-09-19T05:05:18;6.00;;;3.60;;
10471;SDS011;5283;48.876;8.962;2023-09-19T05:07:49;3.80;;;3.50;;
10471;SDS011;5283;48.876;8.962;2023-09-19T05:10:17;3.83;;;3.47;;
10471;SDS011;5283;48.876;8.962;2023-09-19T05:12:46;6.63;;;3.90;;
10471;SDS011;5283;48.876;8.962;2023-09-19T05:15:14;4.80;;;3.93;;
10471;SDS011;5283;48.876;8.962;2023-09-19T05:17:52;4.13;;;3.50;;
10471;SDS011;5283;48.876;8.962;2023-09-19T05:20:23;3.80;;;3.43;;
10471;SDS011;5283;48.876;8.962;2023-09-19T05:22:59;3.87;;;3.57;;
10471;SDS011;5283;48.876;8.962;2023-09-19T05:25:32;5.53;;;3.47;;
10471;SDS011;5283;48.876;8.962;2023-09-19T05:27:59;4.73;;;3.80;;
10471;SDS011;5283;48.876;8.962;2023-09-19T05:30:26;4.90;;;3.70;;
10471;SDS011;5283;48.876;8.962;2023-09-19T05:32:53;5.67;;;3.53;;
10471;SDS011;5283;48.876;8.962;2023-09-19T05:49:30;3.10;;;2.20;;
10471;SDS011;5283;48.876;8.962;2023-09-19T05:51:57;4.93;;;2.40;;
10471;SDS011;5283;48.876;8.962;2023-09-19T05:54:25;3.07;;;2.63;;
10471;SDS011;5283;48.876;8.962;2023-09-19T05:56:52;3.87;;;2.67;;
10471;SDS011;5283;48.876;8.962;2023-09-19T05:59:19;4.43;;;2.90;;
10471;SDS011;5283;48.876;8.962;2023-09-19T06:04:33;5.73;;;2.93;;
10471;SDS011;5283;48.876;8.962;2023-09-19T06:13:35;4.23;;;2.80;;
10471;SDS011;5283;48.876;8.962;2023-09-19T06:16:02;3.10;;;2.50;;
10471;SDS011;5283;48.876;8.962;2023-09-19T06:18:31;2.67;;;2.13;;
10471;SDS011;5283;48.876;8.962;2023-09-19T06:21:00;2.90;;;2.17;;
10471;SDS011;5283;48.876;8.962;2023-09-19T06:23:31;4.93;;;2.60;;
10471;SDS011;5283;48.876;8.962;2023-09-19T06:25:58;2.87;;;2.50;;
10471;SDS011;5283;48.876;8.962;2023-09-19T06:31:11;4.97;;;2.50;;
10471;SDS011;5283;48.876;8.962;2023-09-19T06:33:38;4.30;;;2.40;;
10471;SDS011;5283;48.876;8.962;2023-09-19T06:36:06;3.47;;;2.40;;
10471;SDS011;5283;48.876;8.962;2023-09-19T06:38:33;4.27;;;2.07;;
10471;SDS011;5283;48.876;8.962;2023-09-19T06:41:05;2.30;;;2.10;;
10471;SDS011;5283;48.876;8.962;2023-09-19T06:46:20;3.03;;;1.90;;
10471;SDS011;5283;48.876;8.962;2023-09-19T06:48:47;2.67;;;1.93;;
10471;SDS011;5283;48.876;8.962;2023-09-19T06:51:14;3.70;;;2.00;;
10471;SDS011;5283;48.876;8.962;2023-09-19T06:53:41;6.67;;;2.17;;
10471;SDS011;5283;48.876;8.962;2023-09-19T06:56:09;2.63;;;2.10;;
10471;SDS011;5283;48.876;8.962;2023-09-19T06:58:36;3.97;;;2.47;;
10471;SDS011;5283;48.876;8.962;2023-09-19T07:01:03;3.67;;;2.30;;
10471;SDS011;5283;48.876;8.962;2023-09-19T07:03:30;2.50;;;1.63;;
10471;SDS011;5283;48.876;8.962;2023-09-19T07:05:56;3.60;;;1.97;;
10471;SDS011;5283;48.876;8.962;2023-09-19T07:08:24;5.10;;;2.27;;
10471;SDS011;5283;48.876;8.962;2023-09-19T07:10:51;6.03;;;2.30;;
10471;SDS011;5283;48.876;8.962;2023-09-19T07:13:19;3.00;;;2.10;;
10471;SDS011;5283;48.876;8.962;2023-09-19T07:15:45;4.47;;;2.10;;
10471;SDS011;5283;48.876;8.962;2023-09-19T07:18:13;3.90;;;2.07;;
10471;SDS011;5283;48.876;8.962;2023-09-19T07:20:40;2.27;;;2.07;;
10471;SDS011;5283;48.876;8.962;2023-09-19T07:23:11;3.43;;;1.80;;
10471;SDS011;5283;48.876;8.962;2023-09-19T07:25:41;3.77;;;1.70;;
10471;SDS011;5283;48.876;8.962;2023-09-19T07:28:08;4.60;;;2.03;;
10471;SDS011;5283;48.876;8.962;2023-09-19T07:30:37;3.27;;;2.13;;
10471;SDS011;5283;48.876;8.962;2023-09-19T07:33:05;5.37;;;2.17;;
10471;SDS011;5283;48.876;8.962;2023-09-19T07:35:32;4.37;;;1.63;;
10471;SDS011;5283;48.876;8.962;2023-09-19T07:37:59;2.23;;;1.70;;
10471;SDS011;5283;48.876;8.962;2023-09-19T07:40:29;4.00;;;2.10;;
10471;SDS011;5283;48.876;8.962;2023-09-19T07:42:56;3.10;;;1.80;;
10471;SDS011;5283;48.876;8.962;2023-09-19T07:45:23;4.37;;;2.20;;
10471;SDS011;5283;48.876;8.962;2023-09-19T07:47:51;3.27;;;1.93;;
10471;SDS011;5283;48.876;8.962;2023-09-19T07:50:18;6.03;;;2.30;;
10471;SDS011;5283;48.876;8.962;2023-09-19T07:52:46;5.27;;;2.10;;
10471;SDS011;5283;48.876;8.962;2023-09-19T07:55:14;3.17;;;1.90;;
10471;SDS011;5283;48.876;8.962;2023-09-19T07:57:45;3.07;;;2.17;;
10471;SDS011;5283;48.876;8.962;2023-09-19T08:00:15;2.33;;;1.37;;
10471;SDS011;5283;48.876;8.962;2023-09-19T08:02:43;3.47;;;1.97;;
10471;SDS011;5283;48.876;8.962;2023-09-19T08:05:10;2.43;;;1.60;;
10471;SDS011;5283;48.876;8.962;2023-09-19T08:07:38;5.93;;;1.57;;
10471;SDS011;5283;48.876;8.962;2023-09-19T08:10:06;5.20;;;1.80;;
10471;SDS011;5283;48.876;8.962;2023-09-19T08:12:35;3.57;;;1.47;;
10471;SDS011;5283;48.876;8.962;2023-09-19T08:15:05;1.93;;;1.60;;
10471;SDS011;5283;48.876;8.962;2023-09-19T08:17:35;2.10;;;1.40;;
10471;SDS011;5283;48.876;8.962;2023-09-19T08:20:02;2.33;;;1.67;;
10471;SDS011;5283;48.876;8.962;2023-09-19T08:22:31;2.47;;;1.40;;
10471;SDS011;5283;48.876;8.962;2023-09-19T08:24:58;2.00;;;1.20;;
10471;SDS011;5283;48.876;8.962;2023-09-19T08:27:25;3.13;;;1.50;;
10471;SDS011;5283;48.876;8.962;2023-09-19T08:29:53;2.93;;;1.60;;
10471;SDS011;5283;48.876;8.962;2023-09-19T08:32:19;2.00;;;1.27;;
10471;SDS011;5283;48.876;8.962;2023-09-19T08:34:50;3.87;;;1.80;;
10471;SDS011;5283;48.876;8.962;2023-09-19T08:37:17;1.40;;;1.30;;
10471;SDS011;5283;48.876;8.962;2023-09-19T08:39:45;4.50;;;1.50;;
10471;SDS011;5283;48.876;8.962;2023-09-19T09:03:58;2.07;;;1.57;;
10471;SDS011;5283;48.876;8.962;2023-09-19T09:06:25;1.70;;;1.47;;
10471;SDS011;5283;48.876;8.962;2023-09-19T09:08:54;4.57;;;1.70;;
10471;SDS011;5283;48.876;8.962;2023-09-19T09:11:21;6.00;;;1.30;;
10471;SDS011;5283;48.876;8.962;2023-09-19T09:13:51;2.23;;;1.30;;
10471;SDS011;5283;48.876;8.962;2023-09-19T09:16:17;3.10;;;1.50;;
10471;SDS011;5283;48.876;8.962;2023-09-19T09:18:45;1.60;;;1.37;;
10471;SDS011;5283;48.876;8.962;2023-09-19T09:21:12;1.87;;;1.30;;
10471;SDS011;5283;48.876;8.962;2023-09-19T09:23:41;2.07;;;1.37;;
10471;SDS011;5283;48.876;8.962;2023-09-19T09:26:08;2.73;;;1.30;;
10471;SDS011;5283;48.876;8.962;2023-09-19T09:28:35;1.33;;;1.17;;
10471;SDS011;5283;48.876;8.962;2023-09-19T09:31:23;1.33;;;1.13;;
10471;SDS011;5283;48.876;8.962;2023-09-19T09:33:54;2.17;;;1.50;;
10471;SDS011;5283;48.876;8.962;2023-09-19T09:36:33;1.50;;;1.10;;
10471;SDS011;5283;48.876;8.962;2023-09-19T09:39:04;2.23;;;1.30;;
10471;SDS011;5283;48.876;8.962;2023-09-19T09:41:51;2.43;;;1.43;;
10471;SDS011;5283;48.876;8.962;2023-09-19T09:44:18;2.80;;;1.43;;
10471;SDS011;5283;48.876;8.962;2023-09-19T09:46:45;2.00;;;1.17;;
10471;SDS011;5283;48.876;8.962;2023-09-19T09:49:36;1.80;;;1.03;;
10471;SDS011;5283;48.876;8.962;2023-09-19T09:52:05;4.90;;;1.53;;
10471;SDS011;5283;48.876;8.962;2023-09-19T09:54:36;2.03;;;1.30;;
10471;SDS011;5283;48.876;8.962;2023-09-19T10:15:04;2.00;;;1.30;;
10471;SDS011;5283;48.876;8.962;2023-09-19T10:17:34;2.83;;;1.20;;
10471;SDS011;5283;48.876;8.962;2023-09-19T10:20:02;2.77;;;1.50;;
10471;SDS011;5283;48.876;8.962;2023-09-19T10:22:44;2.33;;;1.17;;
10471;SDS011;5283;48.876;8.962;2023-09-19T10:25:24;2.60;;;1.50;;
10471;SDS011;5283;48.876;8.962;2023-09-19T10:27:52;1.00;;;1.00;;
10471;SDS011;5283;48.876;8.962;2023-09-19T10:30:22;1.70;;;1.27;;
10471;SDS011;5283;48.876;8.962;2023-09-19T10:32:53;1.77;;;1.40;;
10471;SDS011;5283;48.876;8.962;2023-09-19T10:35:25;2.33;;;1.30;;
10471;SDS011;5283;48.876;8.962;2023-09-19T10:37:57;2.23;;;1.67;;
10471;SDS011;5283;48.876;8.962;2023-09-19T10:40:27;1.90;;;1.33;;
10471;SDS011;5283;48.876;8.962;2023-09-19T10:43:04;3.47;;;1.20;;
10471;SDS011;5283;48.876;8.962;2023-09-19T10:45:35;1.37;;;1.27;;
10471;SDS011;5283;48.876;8.962;2023-09-19T10:48:05;1.90;;;1.50;;
10471;SDS011;5283;48.876;8.962;2023-09-19T10:50:37;2.67;;;1.57;;
10471;SDS011;5283;48.876;8.962;2023-09-19T10:53:15;2.23;;;1.20;;
10471;SDS011;5283;48.876;8.962;2023-09-19T10:55:55;2.00;;;1.40;;
10471;SDS011;5283;48.876;8.962;2023-09-19T10:58:32;2.43;;;1.13;;
10471;SDS011;5283;48.876;8.962;2023-09-19T11:01:05;1.90;;;1.20;;
10471;SDS011;5283;48.876;8.962;2023-09-19T11:03:38;1.63;;;1.40;;
10471;SDS011;5283;48.876;8.962;2023-09-19T11:06:13;3.60;;;1.60;;
10471;SDS011;5283;48.876;8.962;2023-09-19T11:11:42;2.03;;;1.60;;
10471;SDS011;5283;48.876;8.962;2023-09-19T11:17:52;1.97;;;1.37;;
10471;SDS011;5283;48.876;8.962;2023-09-19T11:30:52;3.87;;;1.43;;
10471;SDS011;5283;48.876;8.962;2023-09-19T11:33:27;3.13;;;1.73;;
10471;SDS011;5283;48.876;8.962;2023-09-19T11:36:00;1.30;;;1.20;;
10471;SDS011;5283;48.876;8.962;2023-09-19T11:43:53;3.87;;;1.50;;
10471;SDS011;5283;48.876;8.962;2023-09-19T11:46:30;3.57;;;1.60;;
10471;SDS011;5283;48.876;8.962;2023-09-19T11:49:05;2.10;;;1.40;;
10471;SDS011;5283;48.876;8.962;2023-09-19T11:51:40;1.77;;;1.30;;
10471;SDS011;5283;48.876;8.962;2023-09-19T11:54:13;1.90;;;1.10;;
10471;SDS011;5283;48.876;8.962;2023-09-19T11:56:48;1.77;;;1.47;;
10471;SDS011;5283;48.876;8.962;2023-09-19T11:59:26;2.50;;;1.50;;
10471;SDS011;5283;48.876;8.962;2023-09-19T12:01:56;1.60;;;1.20;;
10471;SDS011;5283;48.876;8.962;2023-09-19T12:07:07;2.73;;;1.37;;
10471;SDS011;5283;48.876;8.962;2023-09-19T12:09:43;2.60;;;1.40;;
10471;SDS011;5283;48.876;8.962;2023-09-19T12:12:20;2.47;;;1.40;;
10471;SDS011;5283;48.876;8.962;2023-09-19T12:14:54;3.40;;;1.20;;
10471;SDS011;5283;48.876;8.962;2023-09-19T12:17:35;2.57;;;1.27;;
10471;SDS011;5283;48.876;8.962;2023-09-19T12:20:02;1.27;;;1.20;;
10471;SDS011;5283;48.876;8.962;2023-09-19T12:22:39;1.20;;;1.00;;
10471;SDS011;5283;48.876;8.962;2023-09-19T12:25:10;2.47;;;1.20;;
10471;SDS011;5283;48.876;8.962;2023-09-19T12:27:44;2.07;;;1.17;;
10471;SDS011;5283;48.876;8.962;2023-09-19T12:30:27;2.53;;;1.40;;
10471;SDS011;5283;48.876;8.962;2023-09-19T12:32:54;2.23;;;1.23;;
10471;SDS011;5283;48.876;8.962;2023-09-19T12:51:20;1.07;;;1.07;;
10471;SDS011;5283;48.876;8.962;2023-09-19T12:53:32;1.83;;;1.23;;
10471;SDS011;5283;48.876;8.962;2023-09-19T15:46:51;1.60;;;1.00;;
10471;SDS011;5283;48.876;8.962;2023-09-19T15:49:18;0.93;;;0.90;;
10471;SDS011;5283;48.876;8.962;2023-09-19T15:51:45;2.97;;;1.33;;
10471;SDS011;5283;48.876;8.962;2023-09-19T15:54:12;1.17;;;0.97;;
10471;SDS011;5283;48.876;8.962;2023-09-19T15:56:43;1.10;;;1.07;;
10471;SDS011;5283;48.876;8.962;2023-09-19T15:59:11;3.17;;;1.00;;
10471;SDS011;5283;48.876;8.962;2023-09-19T16:01:39;1.40;;;1.30;;
10471;SDS011;5283;48.876;8.962;2023-09-19T16:04:12;1.73;;;1.13;;
10471;SDS011;5283;48.876;8.962;2023-09-19T16:06:39;1.03;;;0.90;;
10471;SDS011;5283;48.876;8.962;2023-09-19T16:09:08;1.50;;;1.20;;
10471;SDS011;5283;48.876;8.962;2023-09-19T16:11:36;1.07;;;1.00;;
10471;SDS011;5283;48.876;8.962;2023-09-19T16:14:03;1.53;;;0.80;;
10471;SDS011;5283;48.876;8.962;2023-09-19T16:16:31;2.23;;;1.20;;
10471;SDS011;5283;48.876;8.962;2023-09-19T16:18:59;1.57;;;1.10;;
10471;SDS011;5283;48.876;8.962;2023-09-19T16:21:30;1.00;;;0.90;;
10471;SDS011;5283;48.876;8.962;2023-09-19T16:23:58;1.13;;;0.93;;
10471;SDS011;5283;48.876;8.962;2023-09-19T16:26:25;1.63;;;0.80;;
10471;SDS011;5283;48.876;8.962;2023-09-19T16:28:53;1.70;;;0.90;;
10471;SDS011;5283;48.876;8.962;2023-09-19T16:31:27;1.23;;;1.03;;
10471;SDS011;5283;48.876;8.962;2023-09-19T16:33:54;1.93;;;1.00;;
10471;SDS011;5283;48.876;8.962;2023-09-19T16:59:07;2.07;;;0.90;;
10471;SDS011;5283;48.876;8.962;2023-09-19T17:01:36;1.53;;;1.00;;
10471;SDS011;5283;48.876;8.962;2023-09-19T17:04:12;1.47;;;1.20;;
10471;SDS011;5283;48.876;8.962;2023-09-19T17:06:39;1.90;;;0.93;;
10471;SDS011;5283;48.876;8.962;2023-09-19T17:21:19;1.23;;;1.13;;
10471;SDS011;5283;48.876;8.962;2023-09-19T17:23:46;2.13;;;1.13;;
10471;SDS011;5283;48.876;8.962;2023-09-19T17:30:01;1.90;;;1.20;;
10471;SDS011;5283;48.876;8.962;2023-09-19T17:35:48;1.43;;;1.13;;
10471;SDS011;5283;48.876;8.962;2023-09-19T17:38:15;1.90;;;1.30;;
10471;SDS011;5283;48.876;8.962;2023-09-19T17:40:41;1.90;;;1.27;;
10471;SDS011;5283;48.876;8.962;2023-09-19T17:43:08;1.50;;;1.40;;
10471;SDS011;5283;48.876;8.962;2023-09-19T17:45:36;2.27;;;1.17;;
10471;SDS011;5283;48.876;8.962;2023-09-19T17:48:02;2.10;;;1.20;;
10471;SDS011;5283;48.876;8.962;2023-09-19T17:50:31;1.20;;;1.10;;
10471;SDS011;5283;48.876;8.962;2023-09-19T17:52:58;1.57;;;1.20;;
10471;SDS011;5283;48.876;8.962;2023-09-19T18:05:09;1.27;;;1.10;;
10471;SDS011;5283;48.876;8.962;2023-09-19T18:07:42;2.23;;;1.17;;
10471;SDS011;5283;48.876;8.962;2023-09-19T18:10:10;1.53;;;1.43;;
10471;SDS011;5283;48.876;8.962;2023-09-19T18:12:40;1.70;;;1.30;;
10471;SDS011;5283;48.876;8.962;2023-09-19T18:15:12;1.20;;;1.10;;
10471;SDS011;5283;48.876;8.962;2023-09-19T18:20:26;2.70;;;1.50;;
10471;SDS011;5283;48.876;8.962;2023-09-19T18:23:11;1.60;;;1.23;;
10471;SDS011;5283;48.876;8.962;2023-09-19T18:25:37;1.40;;;1.30;;
10471;SDS011;5283;48.876;8.962;2023-09-19T18:28:04;1.43;;;1.30;;
10471;SDS011;5283;48.876;8.962;2023-09-19T18:40:52;2.13;;;1.70;;
10471;SDS011;5283;48.876;8.962;2023-09-19T18:43:19;3.20;;;1.50;;
10471;SDS011;5283;48.876;8.962;2023-09-19T18:46:04;1.93;;;1.33;;
10471;SDS011;5283;48.876;8.962;2023-09-19T18:48:41;2.20;;;1.63;;
10471;SDS011;5283;48.876;8.962;2023-09-19T19:02:27;2.73;;;1.57;;
10471;SDS011;5283;48.876;8.962;2023-09-19T19:04:54;3.23;;;1.97;;
10471;SDS011;5283;48.876;8.962;2023-09-19T19:07:21;4.27;;;1.77;;
10471;SDS011;5283;48.876;8.962;2023-09-19T19:09:48;1.90;;;1.80;;
10471;SDS011;5283;48.876;8.962;2023-09-19T19:12:15;4.90;;;1.93;;
10471;SDS011;5283;48.876;8.962;2023-09-19T19:14:42;3.40;;;1.70;;
10471;SDS011;5283;48.876;8.962;2023-09-19T19:17:11;1.63;;;1.53;;
10471;SDS011;5283;48.876;8.962;2023-09-19T19:19:39;1.80;;;1.70;;
10471;SDS011;5283;48.876;8.962;2023-09-19T19:22:07;1.70;;;1.60;;
10471;SDS011;5283;48.876;8.962;2023-09-19T19:24:34;3.37;;;2.13;;
10471;SDS011;5283;48.876;8.962;2023-09-19T19:27:01;1.93;;;1.83;;
10471;SDS011;5283;48.876;8.962;2023-09-19T19:29:28;3.00;;;1.93;;
10471;SDS011;5283;48.876;8.962;2023-09-19T19:31:55;2.10;;;1.87;;
10471;SDS011;5283;48.876;8.962;2023-09-19T19:34:22;2.90;;;1.80;;
10471;SDS011;5283;48.876;8.962;2023-09-19T19:36:50;2.20;;;1.80;;
10471;SDS011;5283;48.876;8.962;2023-09-19T19:39:17;2.00;;;1.87;;
10471;SDS011;5283;48.876;8.962;2023-09-19T19:41:44;4.37;;;1.87;;
10471;SDS011;5283;48.876;8.962;2023-09-19T19:44:11;2.17;;;2.07;;
10471;SDS011;5283;48.876;8.962;2023-09-19T19:46:37;2.20;;;2.00;;
10471;SDS011;5283;48.876;8.962;2023-09-19T19:49:04;5.03;;;1.90;;
10471;SDS011;5283;48.876;8.962;2023-09-19T19:51:35;2.40;;;2.10;;
10471;SDS011;5283;48.876;8.962;2023-09-19T19:54:04;3.17;;;2.23;;
10471;SDS011;5283;48.876;8.962;2023-09-19T19:56:31;2.77;;;2.07;;
10471;SDS011;5283;48.876;8.962;2023-09-19T19:58:59;4.77;;;2.47;;
10471;SDS011;5283;48.876;8.962;2023-09-19T20:01:26;2.23;;;2.03;;
10471;SDS011;5283;48.876;8.962;2023-09-19T20:03:57;6.60;;;2.10;;
10471;SDS011;5283;48.876;8.962;2023-09-19T20:06:24;2.47;;;2.33;;
10471;SDS011;5283;48.876;8.962;2023-09-19T20:08:52;2.30;;;2.13;;
10471;SDS011;5283;48.876;8.962;2023-09-19T20:11:18;2.00;;;1.90;;
10471;SDS011;5283;48.876;8.962;2023-09-19T20:13:45;2.67;;;2.17;;
10471;SDS011;5283;48.876;8.962;2023-09-19T20:16:12;4.90;;;2.40;;
10471;SDS011;5283;48.876;8.962;2023-09-19T20:18:39;5.03;;;2.00;;
10471;SDS011;5283;48.876;8.962;2023-09-19T20:21:07;2.37;;;2.17;;
10471;SDS011;5283;48.876;8.962;2023-09-19T20:23:40;2.10;;;2.00;;
10471;SDS011;5283;48.876;8.962;2023-09-19T20:26:12;3.30;;;1.90;;
10471;SDS011;5283;48.876;8.962;2023-09-19T20:28:38;2.77;;;2.10;;
10471;SDS011;5283;48.876;8.962;2023-09-19T20:31:06;1.87;;;1.77;;
10471;SDS011;5283;48.876;8.962;2023-09-19T20:33:35;2.70;;;2.20;;
10471;SDS011;5283;48.876;8.962;2023-09-19T20:36:09;3.37;;;2.40;;
10471;SDS011;5283;48.876;8.962;2023-09-19T20:38:37;2.87;;;2.30;;
10471;SDS011;5283;48.876;8.962;2023-09-19T20:41:07;5.67;;;2.50;;
10471;SDS011;5283;48.876;8.962;2023-09-19T20:43:34;3.10;;;2.40;;
10471;SDS011;5283;48.876;8.962;2023-09-19T20:46:04;2.80;;;2.60;;
10471;SDS011;5283;48.876;8.962;2023-09-19T20:48:31;2.63;;;2.07;;
10471;SDS011;5283;48.876;8.962;2023-09-19T20:51:12;4.57;;;2.47;;
10471;SDS011;5283;48.876;8.962;2023-09-19T20:53:40;3.50;;;2.80;;
10471;SDS011;5283;48.876;8.962;2023-09-19T20:56:08;5.67;;;2.70;;
10471;SDS011;5283;48.876;8.962;2023-09-19T20:58:37;3.63;;;2.57;;
10471;SDS011;5283;48.876;8.962;2023-09-19T21:01:05;3.10;;;2.67;;
10471;SDS011;5283;48.876;8.962;2023-09-19T21:03:33;3.00;;;2.43;;
10471;SDS011;5283;48.876;8.962;2023-09-19T21:08:30;2.63;;;2.43;;
10471;SDS011;5283;48.876;8.962;2023-09-19T21:10:58;3.30;;;2.57;;
10471;SDS011;5283;48.876;8.962;2023-09-19T21:13:25;3.00;;;2.63;;
10471;SDS011;5283;48.876;8.962;2023-09-19T21:15:54;4.00;;;2.50;;
10471;SDS011;5283;48.876;8.962;2023-09-19T21:18:21;3.53;;;2.70;;
10471;SDS011;5283;48.876;8.962;2023-09-19T21:20:47;3.93;;;2.90;;
10471;SDS011;5283;48.876;8.962;2023-09-19T21:23:14;2.93;;;2.73;;
10471;SDS011;5283;48.876;8.962;2023-09-19T21:25:42;3.67;;;2.50;;
10471;SDS011;5283;48.876;8.962;2023-09-19T21:28:08;2.97;;;2.77;;
10471;SDS011;5283;48.876;8.962;2023-09-19T21:30:35;5.83;;;3.10;;
10471;SDS011;5283;48.876;8.962;2023-09-19T21:33:02;3.70;;;2.87;;
10471;SDS011;5283;48.876;8.962;2023-09-19T21:35:29;3.10;;;2.73;;
10471;SDS011;5283;48.876;8.962;2023-09-19T21:37:56;3.97;;;2.60;;
10471;SDS011;5283;48.876;8.962;2023-09-19T21:40:23;2.70;;;2.50;;
10471;SDS011;5283;48.876;8.962;2023-09-19T21:42:50;3.93;;;2.50;;
10471;SDS011;5283;48.876;8.962;2023-09-19T21:45:17;3.07;;;2.73;;
10471;SDS011;5283;48.876;8.962;2023-09-19T21:47:43;3.77;;;2.63;;
10471;SDS011;5283;48.876;8.962;2023-09-19T21:50:10;3.43;;;2.80;;
10471;SDS011;5283;48.876;8.962;2023-09-19T21:52:37;5.57;;;2.80;;
10471;SDS011;5283;48.876;8.962;2023-09-19T21:55:04;4.57;;;2.97;;
10471;SDS011;5283;48.876;8.962;2023-09-19T21:57:31;3.50;;;3.20;;
10471;SDS011;5283;48.876;8.962;2023-09-19T21:59:57;3.60;;;3.10;;
10471;SDS011;5283;48.876;8.962;2023-09-19T22:02:24;4.23;;;3.30;;
10471;SDS011;5283;48.876;8.962;2023-09-19T22:04:51;3.57;;;3.27;;
10471;SDS011;5283;48.876;8.962;2023-09-19T22:07:18;5.07;;;3.07;;
10471;SDS011;5283;48.876;8.962;2023-09-19T22:09:46;3.50;;;3.10;;
10471;SDS011;5283;48.876;8.962;2023-09-19T22:12:12;4.70;;;3.10;;
10471;SDS011;5283;48.876;8.962;2023-09-19T22:14:39;3.20;;;3.00;;
10471;SDS011;5283;48.876;8.962;2023-09-19T22:17:06;5.67;;;2.90;;
10471;SDS011;5283;48.876;8.962;2023-09-19T22:19:34;3.80;;;2.83;;
10471;SDS011;5283;48.876;8.962;2023-09-19T22:22:04;4.03;;;2.60;;
10471;SDS011;5283;48.876;8.962;2023-09-19T22:24:34;3.43;;;2.47;;
10471;SDS011;5283;48.876;8.962;2023-09-19T22:27:01;2.60;;;2.50;;
10471;SDS011;5283;48.876;8.962;2023-09-19T22:29:28;4.10;;;2.80;;
10471;SDS011;5283;48.876;8.962;2023-09-19T22:31:55;3.37;;;2.60;;
10471;SDS011;5283;48.876;8.962;2023-09-19T22:34:22;3.37;;;2.43;;
10471;SDS011;5283;48.876;8.962;2023-09-19T22:36:48;3.30;;;2.43;;
10471;SDS011;5283;48.876;8.962;2023-09-19T22:39:20;2.70;;;2.50;;
10471;SDS011;5283;48.876;8.962;2023-09-19T22:41:51;3.23;;;2.60;;
10471;SDS011;5283;48.876;8.962;2023-09-19T22:44:19;5.10;;;2.73;;
10471;SDS011;5283;48.876;8.962;2023-09-19T22:46:47;3.17;;;2.87;;
10471;SDS011;5283;48.876;8.962;2023-09-19T22:49:15;3.77;;;2.90;;